Time;durP1;ratioP1;P1;durP2;ratioP2;P2;SDS_P1;SDS_P2;PMS_P1;PMS_P2;Temp;Humidity;BMP_temperature;BMP_pressure;BME280_temperature;BME280_humidity;BME280_pressure;Samples;Min_cycle;Max_cycle;Signal;HPM_P1;HPM_P2
2023/09/28 00:03:03;;;;;;;13.10;8.90;;;;;;;14.85;76.91;101589.47;107967;1254;72295;-68
2023/09/28 00:05:32;;;;;;;11.40;9.30;;;;;;;14.82;76.88;101587.17;107946;1254;73146;-68
2023/09/28 00:08:00;;;;;;;11.20;9.20;;;;;;;14.77;76.77;101585.48;107972;1260;72663;-68
2023/09/28 00:10:28;;;;;;;12.80;8.70;;;;;;;14.76;76.49;101583.49;107890;1254;61718;-68
2023/09/28 00:12:56;;;;;;;14.20;9.70;;;;;;;14.72;76.26;101585.04;108028;1254;60016;-68
2023/09/28 00:15:26;;;;;;;14.00;9.30;;;;;;;14.68;76.17;101585.96;107977;1255;72249;-69
2023/09/28 00:17:54;;;;;;;15.00;9.60;;;;;;;14.64;75.78;101584.87;108060;1254;72769;-68
2023/09/28 00:20:22;;;;;;;11.50;9.40;;;;;;;14.59;75.58;101587.04;107962;1254;71266;-68
2023/09/28 00:22:52;;;;;;;13.00;9.80;;;;;;;14.55;75.33;101590.67;107896;1256;60465;-68
2023/09/28 00:25:23;;;;;;;12.30;9.20;;;;;;;14.53;75.19;101591.52;107932;1257;59618;-70
2023/09/28 00:27:53;;;;;;;15.00;9.00;;;;;;;14.49;74.98;101590.48;108032;1254;73146;-68
2023/09/28 00:30:22;;;;;;;12.80;8.70;;;;;;;14.45;74.97;101590.36;107928;1254;71976;-69
2023/09/28 00:32:51;;;;;;;14.40;9.70;;;;;;;14.43;74.87;101589.69;107950;1254;72029;-68
2023/09/28 00:35:19;;;;;;;12.40;9.00;;;;;;;14.41;74.83;101587.36;108000;1256;60563;-69
2023/09/28 00:37:47;;;;;;;12.80;9.20;;;;;;;14.40;74.91;101585.36;107983;1254;59750;-68
2023/09/28 00:40:28;;;;;;;12.10;8.80;;;;;;;14.39;74.86;101586.44;107911;1254;73080;-69
2023/09/28 00:42:56;;;;;;;13.30;9.30;;;;;;;14.38;74.83;101586.75;107894;1254;74868;-68
2023/09/28 00:45:24;;;;;;;13.20;8.70;;;;;;;14.37;74.77;101587.17;107744;1254;72754;-68
2023/09/28 00:48:00;;;;;;;12.80;9.00;;;;;;;14.34;74.78;101587.46;108007;1257;60658;-68
2023/09/28 00:50:28;;;;;;;12.70;8.70;;;;;;;14.31;74.79;101587.51;107826;1256;59651;-69
2023/09/28 00:52:59;;;;;;;12.70;8.60;;;;;;;14.29;74.86;101586.09;107761;1257;73037;-68
2023/09/28 00:55:30;;;;;;;11.70;8.60;;;;;;;14.28;74.87;101583.42;107901;1260;71675;-68
2023/09/28 00:58:02;;;;;;;14.50;8.90;;;;;;;14.26;74.82;101583.80;107927;1260;72636;-68
2023/09/28 01:00:32;;;;;;;10.90;8.70;;;;;;;14.26;74.86;101585.95;107801;1256;61683;-69
2023/09/28 01:03:02;;;;;;;11.40;9.00;;;;;;;14.25;74.76;101585.15;107873;1256;59682;-69
2023/09/28 01:05:34;;;;;;;12.20;8.40;;;;;;;14.23;74.65;101585.06;107879;1256;72097;-69
2023/09/28 01:08:12;;;;;;;14.50;8.50;;;;;;;14.23;74.62;101581.79;107802;1258;71435;-69
2023/09/28 01:10:43;;;;;;;13.00;8.90;;;;;;;14.21;74.40;101584.88;107906;1254;71438;-69
2023/09/28 01:13:12;;;;;;;11.80;8.70;;;;;;;14.21;74.39;101585.14;107772;1257;60381;-69
2023/09/28 01:15:48;;;;;;;13.50;9.00;;;;;;;14.18;74.21;101581.96;107986;1257;60253;-69
2023/09/28 01:18:17;;;;;;;12.40;8.80;;;;;;;14.17;74.06;101583.30;107893;1258;71778;-67
2023/09/28 01:20:45;;;;;;;11.30;9.10;;;;;;;14.14;73.93;101585.20;107966;1256;72701;-68
2023/09/28 01:23:13;;;;;;;11.60;8.60;;;;;;;14.11;73.84;101585.67;107896;1255;72489;-68
2023/09/28 01:25:44;;;;;;;15.80;9.10;;;;;;;14.09;73.66;101583.50;107926;1256;61038;-68
2023/09/28 01:28:12;;;;;;;11.50;9.00;;;;;;;14.07;73.67;101586.16;107945;1257;60020;-68
2023/09/28 01:30:40;;;;;;;13.90;8.70;;;;;;;14.06;73.56;101582.51;107936;1255;71788;-68
2023/09/28 01:33:09;;;;;;;12.30;9.00;;;;;;;14.06;73.52;101584.02;107888;1257;71129;-68
2023/09/28 01:35:37;;;;;;;14.50;9.40;;;;;;;14.06;73.40;101586.38;107882;1257;71130;-68
2023/09/28 01:38:10;;;;;;;13.60;9.40;;;;;;;14.04;73.35;101581.79;107708;1255;60498;-67
2023/09/28 01:40:38;;;;;;;12.40;8.90;;;;;;;14.02;73.32;101586.70;107922;1256;60028;-69
2023/09/28 01:43:06;;;;;;;12.20;9.40;;;;;;;13.99;73.28;101583.40;107847;1254;75344;-67
2023/09/28 01:45:34;;;;;;;12.60;8.40;;;;;;;13.97;73.24;101586.88;107987;1258;72461;-68
2023/09/28 01:48:03;;;;;;;15.40;9.90;;;;;;;13.97;73.24;101586.61;107977;1257;71499;-68
2023/09/28 01:50:32;;;;;;;12.10;9.60;;;;;;;13.97;73.22;101584.67;107862;1257;60224;-69
2023/09/28 01:53:00;;;;;;;15.70;9.30;;;;;;;13.95;73.10;101589.77;107822;1255;60106;-68
2023/09/28 01:55:28;;;;;;;14.50;9.60;;;;;;;13.92;72.96;101591.87;107922;1256;73052;-68
2023/09/28 01:57:56;;;;;;;13.40;9.20;;;;;;;13.89;73.01;101594.38;107731;1257;72710;-68
2023/09/28 02:00:25;;;;;;;12.40;9.30;;;;;;;13.88;73.02;101596.08;108101;1257;72751;-68
2023/09/28 02:02:55;;;;;;;14.50;9.40;;;;;;;13.88;73.05;101599.30;107877;1257;60406;-68
2023/09/28 02:05:22;;;;;;;12.60;9.70;;;;;;;13.86;73.14;101603.59;107931;1256;59410;-68
2023/09/28 02:07:50;;;;;;;13.70;9.30;;;;;;;13.86;73.20;101601.17;107908;1255;73126;-68
2023/09/28 02:10:20;;;;;;;12.20;9.80;;;;;;;13.86;73.26;101604.98;107965;1258;71858;-69
2023/09/28 02:12:48;;;;;;;13.50;9.30;;;;;;;13.84;73.33;101601.52;107940;1256;72725;-68
2023/09/28 02:15:15;;;;;;;13.40;9.50;;;;;;;13.84;73.37;101598.24;107767;1257;61863;-70
2023/09/28 02:17:47;;;;;;;16.20;10.50;;;;;;;13.82;73.29;101596.30;107700;1255;60026;-70
2023/09/28 02:20:16;;;;;;;15.80;10.00;;;;;;;13.81;73.22;101596.13;107884;1256;73205;-68
2023/09/28 02:22:44;;;;;;;12.40;9.50;;;;;;;13.81;73.27;101597.30;107951;1257;71731;-68
2023/09/28 02:25:20;;;;;;;14.70;10.00;;;;;;;13.81;73.26;101600.36;108126;1258;72474;-70
2023/09/28 02:27:48;;;;;;;16.10;9.80;;;;;;;13.80;73.44;101599.50;108026;1257;61736;-68
2023/09/28 02:30:19;;;;;;;12.40;9.10;;;;;;;13.81;73.53;101601.44;108026;1256;60117;-69
2023/09/28 02:32:47;;;;;;;13.50;9.40;;;;;;;13.77;73.48;101604.52;107816;1258;72982;-68
2023/09/28 02:35:16;;;;;;;15.60;9.90;;;;;;;13.77;73.48;101609.83;107779;1257;72375;-67
2023/09/28 02:37:46;;;;;;;13.40;9.40;;;;;;;13.74;73.63;101609.63;107836;1257;72746;-67
2023/09/28 02:40:14;;;;;;;14.40;10.10;;;;;;;13.72;73.60;101607.69;107900;1258;60572;-68
2023/09/28 02:42:42;;;;;;;16.80;9.60;;;;;;;13.70;73.76;101605.46;107917;1256;60285;-68
2023/09/28 02:45:13;;;;;;;15.40;11.20;;;;;;;13.68;73.65;101605.85;107827;1256;71932;-70
2023/09/28 02:47:43;;;;;;;13.20;10.20;;;;;;;13.63;73.70;101602.97;107734;1256;71428;-68
2023/09/28 02:50:11;;;;;;;13.00;10.30;;;;;;;13.63;73.90;101602.91;107918;1257;71383;-68
2023/09/28 02:52:40;;;;;;;14.40;10.00;;;;;;;13.62;73.85;101599.84;107811;1256;60372;-68
2023/09/28 02:55:10;;;;;;;14.60;10.70;;;;;;;13.61;74.02;101605.36;107908;1255;60050;-68
2023/09/28 02:57:38;;;;;;;13.30;10.10;;;;;;;13.58;74.15;101601.08;107978;1255;73031;-68
2023/09/28 03:02:45;;;;;;;15.20;10.30;;;;;;;13.53;74.43;101597.92;108052;1256;71491;-68
2023/09/28 03:05:16;;;;;;;12.60;9.90;;;;;;;13.55;74.62;101600.14;107914;1257;61795;-71
2023/09/28 03:07:45;;;;;;;15.60;9.50;;;;;;;13.56;74.74;101596.23;107960;1256;59544;-68
2023/09/28 03:10:14;;;;;;;14.20;10.30;;;;;;;13.53;74.66;101590.50;107970;1257;73018;-68
2023/09/28 03:12:42;;;;;;;14.40;10.50;;;;;;;13.50;74.75;101591.88;107771;1255;72889;-68
2023/09/28 03:15:10;;;;;;;13.50;10.70;;;;;;;13.48;74.82;101595.02;107854;1258;72695;-68
2023/09/28 03:17:39;;;;;;;17.80;11.60;;;;;;;13.46;74.79;101591.19;108061;1256;60469;-68
2023/09/28 03:20:13;;;;;;;16.70;11.30;;;;;;;13.45;74.78;101590.02;108088;1257;59436;-69
2023/09/28 03:22:45;;;;;;;15.10;10.40;;;;;;;13.43;74.77;101591.15;107827;1256;71992;-68
2023/09/28 03:25:22;;;;;;;13.10;10.10;;;;;;;13.42;74.69;101592.63;107954;1257;72478;-68
2023/09/28 03:27:54;;;;;;;15.40;10.50;;;;;;;13.41;74.59;101591.97;107859;1256;71475;-68
2023/09/28 03:30:23;;;;;;;14.30;10.60;;;;;;;13.37;74.65;101594.02;107873;1260;61685;-68
2023/09/28 03:32:51;;;;;;;15.90;10.80;;;;;;;13.36;74.49;101592.66;107761;1256;59938;-68
2023/09/28 03:35:19;;;;;;;12.60;10.40;;;;;;;13.36;74.58;101594.40;107904;1257;72722;-68
2023/09/28 03:37:47;;;;;;;15.20;10.50;;;;;;;13.36;74.51;101598.65;107860;1256;71913;-68
2023/09/28 03:40:16;;;;;;;15.10;10.70;;;;;;;13.37;74.34;101597.56;107668;1256;71446;-69
2023/09/28 03:42:48;;;;;;;14.60;11.20;;;;;;;13.37;74.32;101602.29;107924;1256;59416;-68
2023/09/28 03:45:20;;;;;;;13.50;10.40;;;;;;;13.37;74.32;101604.23;107994;1256;60109;-69
2023/09/28 03:47:52;;;;;;;13.10;10.30;;;;;;;13.40;74.23;101609.83;107856;1255;72118;-68
2023/09/28 03:50:21;;;;;;;13.80;10.80;;;;;;;13.40;74.07;101610.27;107815;1257;73029;-69
2023/09/28 03:52:49;;;;;;;13.20;10.10;;;;;;;13.40;74.02;101616.70;107880;1257;71806;-68
2023/09/28 03:55:18;;;;;;;14.40;10.50;;;;;;;13.42;73.94;101618.27;107840;1255;60483;-69
2023/09/28 03:57:46;;;;;;;16.30;10.80;;;;;;;13.44;74.01;101615.79;107794;1257;60357;-69
2023/09/28 04:00:15;;;;;;;14.80;10.60;;;;;;;13.45;73.92;101617.83;107855;1257;73964;-69
2023/09/28 04:02:50;;;;;;;14.20;10.90;;;;;;;13.47;74.06;101616.27;108005;1257;72789;-69
2023/09/28 04:05:23;;;;;;;13.60;10.50;;;;;;;13.49;74.05;101612.98;107867;1257;71679;-69
2023/09/28 04:07:52;;;;;;;13.90;11.30;;;;;;;13.49;74.19;101615.58;107837;1256;60409;-69
2023/09/28 04:10:21;;;;;;;15.40;10.90;;;;;;;13.50;74.22;101614.73;107792;1255;60281;-69
2023/09/28 04:12:52;;;;;;;15.00;11.40;;;;;;;13.51;74.25;101616.14;107829;1257;72851;-69
2023/09/28 04:15:22;;;;;;;17.10;11.00;;;;;;;13.53;74.32;101612.84;107923;1260;70430;-68
2023/09/28 04:17:50;;;;;;;16.10;11.30;;;;;;;13.54;74.42;101612.63;108003;1256;73057;-68
2023/09/28 04:20:18;;;;;;;16.20;11.80;;;;;;;13.57;74.38;101615.23;107880;1260;61658;-68
2023/09/28 04:22:46;;;;;;;15.50;11.00;;;;;;;13.66;74.23;101615.29;108099;1257;60291;-69
2023/09/28 04:25:15;;;;;;;13.30;10.70;;;;;;;13.74;74.23;101615.98;107855;1255;71552;-68
2023/09/28 04:27:42;;;;;;;17.70;11.80;;;;;;;13.78;74.23;101612.63;107885;1256;72751;-69
2023/09/28 04:30:11;;;;;;;14.40;11.30;;;;;;;13.79;74.30;101610.40;108150;1257;71277;-69
2023/09/28 04:32:38;;;;;;;16.10;12.30;;;;;;;13.81;74.42;101613.04;108177;1251;60330;-69
2023/09/28 04:35:10;;;;;;;17.60;11.80;;;;;;;13.84;74.43;101615.92;108105;1251;62279;-69
2023/09/28 04:37:39;;;;;;;12.70;10.00;;;;;;;13.88;74.47;101616.44;108130;1251;72577;-69
2023/09/28 04:40:08;;;;;;;15.40;11.90;;;;;;;13.91;74.43;101619.52;108089;1257;72667;-69
2023/09/28 04:42:36;;;;;;;17.00;11.80;;;;;;;13.94;74.37;101614.63;108181;1251;72674;-69
2023/09/28 04:45:09;;;;;;;14.50;11.00;;;;;;;13.99;74.33;101615.74;108208;1251;60629;-70
2023/09/28 04:47:37;;;;;;;15.70;11.40;;;;;;;14.04;74.24;101618.16;108199;1251;60357;-69
2023/09/28 04:50:06;;;;;;;14.90;11.30;;;;;;;14.11;74.23;101613.30;108283;1253;73902;-70
2023/09/28 04:52:37;;;;;;;17.30;11.70;;;;;;;14.18;74.29;101613.30;108217;1253;72527;-69
2023/09/28 04:55:06;;;;;;;14.00;10.90;;;;;;;14.24;74.17;101617.65;108110;1253;75163;-70
2023/09/28 04:57:34;;;;;;;15.40;11.20;;;;;;;14.30;74.18;101619.58;108091;1257;60781;-67
2023/09/28 05:00:06;;;;;;;14.10;11.10;;;;;;;14.34;74.32;101620.63;108122;1251;60324;-68
2023/09/28 05:02:35;;;;;;;16.20;11.60;;;;;;;14.44;73.96;101623.41;108217;1251;73992;-68
2023/09/28 05:05:05;;;;;;;13.70;11.50;;;;;;;14.50;73.85;101621.11;108173;1251;72746;-71
2023/09/28 05:07:33;;;;;;;16.10;11.80;;;;;;;14.57;73.57;101622.30;108123;1251;73180;-69
2023/09/28 05:10:01;;;;;;;16.20;11.40;;;;;;;14.64;73.39;101624.45;108504;1251;60219;-68
2023/09/28 05:12:28;;;;;;;14.10;11.20;;;;;;;14.70;73.14;101630.47;108314;1253;62552;-68
2023/09/28 05:14:57;;;;;;;14.40;11.10;;;;;;;14.78;73.02;101635.10;108153;1251;73883;-68
2023/09/28 05:17:25;;;;;;;14.80;11.20;;;;;;;14.82;72.98;101634.46;108273;1253;72599;-68
2023/09/28 05:19:53;;;;;;;14.60;11.00;;;;;;;14.88;72.94;101634.52;108230;1251;72647;-68
2023/09/28 05:22:21;;;;;;;19.30;11.10;;;;;;;14.95;72.86;101636.00;108208;1257;61795;-68
2023/09/28 05:24:49;;;;;;;14.20;11.10;;;;;;;15.02;72.83;101637.99;108195;1253;60336;-68
2023/09/28 05:27:17;;;;;;;15.10;11.20;;;;;;;15.10;72.75;101637.51;108189;1251;73869;-68
2023/09/28 05:29:45;;;;;;;13.50;11.00;;;;;;;15.21;72.44;101635.34;108102;1251;73036;-71
2023/09/28 05:32:12;;;;;;;14.60;11.00;;;;;;;15.31;72.33;101636.85;108050;1251;71424;-69
2023/09/28 05:34:40;;;;;;;14.10;10.40;;;;;;;15.41;72.01;101632.37;108189;1251;60970;-69
2023/09/28 05:37:08;;;;;;;15.00;11.00;;;;;;;15.52;71.79;101631.77;108560;1251;62230;-69
2023/09/28 05:39:37;;;;;;;14.10;10.20;;;;;;;15.63;71.59;101628.76;108122;1251;72661;-69
2023/09/28 05:42:06;;;;;;;14.80;10.80;;;;;;;15.72;71.06;101623.73;108169;1251;71616;-69
2023/09/28 05:44:34;;;;;;;13.20;10.60;;;;;;;15.81;70.75;101627.15;108139;1253;71775;-69
2023/09/28 05:47:02;;;;;;;13.80;10.70;;;;;;;15.91;70.31;101627.38;108133;1251;60425;-69
2023/09/28 05:49:30;;;;;;;13.10;10.50;;;;;;;15.97;69.98;101628.38;108119;1251;60510;-69
2023/09/28 05:51:58;;;;;;;15.00;11.20;;;;;;;16.04;69.90;101627.63;108122;1253;73946;-69
2023/09/28 05:54:26;;;;;;;15.70;10.80;;;;;;;16.13;69.68;101627.75;108251;1253;72693;-68
2023/09/28 05:56:54;;;;;;;15.80;10.60;;;;;;;16.20;69.39;101627.02;108161;1258;72418;-68
2023/09/28 05:59:21;;;;;;;13.70;10.80;;;;;;;16.29;69.15;101628.09;108229;1252;61744;-68
2023/09/28 06:01:49;;;;;;;14.20;10.50;;;;;;;16.35;68.73;101628.89;108196;1253;60425;-68
2023/09/28 06:04:16;;;;;;;15.30;11.30;;;;;;;16.40;68.58;101630.35;108287;1253;72541;-69
2023/09/28 06:06:44;;;;;;;12.60;10.20;;;;;;;16.49;68.74;101631.38;108104;1251;72189;-69
2023/09/28 06:09:12;;;;;;;15.70;10.80;;;;;;;16.56;68.57;101634.13;108003;1252;72823;-69
2023/09/28 06:11:39;;;;;;;17.40;11.30;;;;;;;16.61;68.38;101634.88;108159;1251;61667;-69
2023/09/28 06:14:08;;;;;;;15.20;11.30;;;;;;;16.67;68.49;101630.93;108203;1251;60322;-69
2023/09/28 07:59:46;;;;;;;16.20;11.50;;;;;;;20.64;58.54;101617.31;105867;1283;613566;-68
2023/09/28 08:02:14;;;;;;;12.10;9.40;;;;;;;21.31;56.43;101611.66;107183;1267;186465;-69
2023/09/28 08:04:41;;;;;;;15.30;10.40;;;;;;;21.53;55.21;101607.36;107350;1267;59400;-69
2023/09/28 08:07:09;;;;;;;13.50;9.90;;;;;;;21.65;54.65;101607.14;107361;1268;72353;-69
2023/09/28 08:09:37;;;;;;;12.40;10.60;;;;;;;21.80;54.42;101608.41;108169;1254;75006;-68
2023/09/28 08:12:05;;;;;;;13.00;10.20;;;;;;;21.95;53.82;101610.48;108142;1254;72915;-68
2023/09/28 08:14:33;;;;;;;14.20;10.30;;;;;;;22.10;53.35;101608.08;108235;1254;59403;-68
2023/09/28 08:17:00;;;;;;;12.20;9.70;;;;;;;22.28;53.24;101606.73;108145;1254;61619;-69
2023/09/28 08:19:29;;;;;;;11.50;9.30;;;;;;;22.43;52.81;101603.09;108131;1254;71009;-70
2023/09/28 08:21:56;;;;;;;13.70;8.90;;;;;;;22.56;52.34;101601.17;108094;1254;72024;-69
2023/09/28 08:24:24;;;;;;;12.80;9.40;;;;;;;22.70;51.99;101598.61;108068;1254;72785;-69
2023/09/28 08:26:52;;;;;;;14.40;9.90;;;;;;;22.85;50.99;101595.54;108077;1259;60570;-69
2023/09/28 08:29:19;;;;;;;11.10;9.20;;;;;;;22.98;50.32;101598.98;108041;1254;60093;-70
2023/09/28 08:31:47;;;;;;;13.60;8.90;;;;;;;23.10;50.24;101597.77;108133;1254;75323;-69
2023/09/28 08:34:15;;;;;;;10.40;8.90;;;;;;;23.30;49.72;101593.73;107913;1254;71584;-67
2023/09/28 08:37:03;;;;;;;13.90;8.70;;;;;;;23.48;48.41;101592.61;108032;1254;72703;-68
2023/09/28 08:39:31;;;;;;;13.40;8.60;;;;;;;23.58;48.08;101590.19;108099;1254;59525;-68
2023/09/28 08:42:01;;;;;;;13.70;8.50;;;;;;;23.68;47.77;101589.02;108066;1254;60846;-69
2023/09/28 08:44:30;;;;;;;11.00;8.30;;;;;;;23.79;47.27;101585.48;108166;1254;73051;-69
2023/09/28 08:46:59;;;;;;;11.50;8.20;;;;;;;23.90;46.98;101584.34;108192;1254;71610;-69
2023/09/28 08:49:29;;;;;;;11.90;8.80;;;;;;;23.99;46.42;101582.96;108150;1254;72492;-68
2023/09/28 08:51:57;;;;;;;14.00;9.30;;;;;;;24.05;45.64;101580.41;108141;1254;59525;-68
2023/09/28 08:54:24;;;;;;;11.60;8.60;;;;;;;24.13;45.51;101580.14;108114;1253;60054;-69
2023/09/28 08:56:53;;;;;;;10.20;8.10;;;;;;;24.24;45.74;101577.88;108157;1254;72996;-69
2023/09/28 08:59:23;;;;;;;9.60;7.80;;;;;;;24.35;45.44;101574.12;107982;1257;75008;-68
2023/09/28 09:01:51;;;;;;;11.70;8.00;;;;;;;24.46;45.41;101574.37;108041;1256;72776;-69
2023/09/28 09:04:20;;;;;;;12.10;8.00;;;;;;;24.55;45.44;101570.88;108012;1257;60614;-68
2023/09/28 09:06:47;;;;;;;12.20;7.60;;;;;;;24.66;43.99;101567.69;108092;1257;60232;-70
2023/09/28 09:09:17;;;;;;;12.60;7.60;;;;;;;24.71;43.99;101562.45;108134;1253;75229;-69
2023/09/28 09:11:52;;;;;;;12.90;8.20;;;;;;;24.80;44.16;101557.11;108113;1254;74603;-68
2023/09/28 09:14:21;;;;;;;10.30;7.50;;;;;;;24.91;43.81;101557.70;108026;1260;72917;-69
2023/09/28 09:16:48;;;;;;;10.90;6.50;;;;;;;24.97;43.41;101555.85;107950;1254;61678;-70
2023/09/28 09:19:16;;;;;;;9.90;7.00;;;;;;;25.05;43.16;101552.50;108136;1253;60089;-69
2023/09/28 09:21:44;;;;;;;12.70;8.90;;;;;;;25.16;42.78;101550.89;108147;1256;73023;-69
2023/09/28 09:24:13;;;;;;;14.10;10.20;;;;;;;25.22;42.16;101548.17;108072;1254;73112;-70
2023/09/28 09:26:43;;;;;;;12.10;9.00;;;;;;;25.23;42.23;101546.73;108208;1254;73772;-69
2023/09/28 09:29:13;;;;;;;9.70;6.40;;;;;;;25.30;42.28;101547.28;108127;1257;60896;-69
2023/09/28 09:31:45;;;;;;;12.80;6.90;;;;;;;25.40;40.37;101544.31;108065;1256;59490;-69
2023/09/28 09:34:17;;;;;;;11.20;6.80;;;;;;;25.47;40.36;101538.10;108142;1254;73301;-69
2023/09/28 09:36:51;;;;;;;8.50;6.70;;;;;;;25.55;40.46;101535.02;108205;1254;72748;-69
2023/09/28 09:39:30;;;;;;;9.20;6.70;;;;;;;25.67;40.71;101531.86;108057;1254;72666;-69
2023/09/28 09:41:58;;;;;;;10.70;7.00;;;;;;;25.82;39.23;101532.80;108174;1254;60632;-71
2023/09/28 09:44:27;;;;;;;10.20;6.50;;;;;;;25.87;39.47;101528.31;108113;1254;59490;-71
2023/09/28 09:46:55;;;;;;;10.60;7.00;;;;;;;25.96;38.76;101529.25;108079;1257;73331;-73
2023/09/28 09:49:24;;;;;;;8.80;6.90;;;;;;;26.02;39.04;101524.73;107943;1254;72962;-73
2023/09/28 09:51:52;;;;;;;10.30;6.30;;;;;;;26.12;38.46;101520.46;107993;1256;72796;-73
2023/09/28 09:54:20;;;;;;;11.70;7.10;;;;;;;26.23;38.35;101518.81;107991;1254;59529;-73
2023/09/28 09:56:49;;;;;;;9.00;6.10;;;;;;;26.33;37.97;101514.61;108120;1254;59480;-74
2023/09/28 09:59:21;;;;;;;11.40;6.30;;;;;;;26.42;36.93;101518.82;107892;1257;73140;-74
2023/09/28 10:01:50;;;;;;;10.60;6.20;;;;;;;26.47;35.93;101515.22;107899;1254;74635;-73
2023/09/28 10:04:19;;;;;;;11.00;6.70;;;;;;;26.50;35.90;101513.39;108102;1254;72808;-72
2023/09/28 10:06:51;;;;;;;7.50;5.60;;;;;;;26.49;35.68;101511.47;108190;1257;59599;-76
2023/09/28 10:09:20;;;;;;;8.70;6.10;;;;;;;26.54;35.68;101510.54;108139;1257;59534;-74
2023/09/28 10:11:49;;;;;;;9.40;6.30;;;;;;;26.65;35.04;101505.58;108308;1255;71062;-75
2023/09/28 10:14:25;;;;;;;8.80;6.10;;;;;;;26.60;35.49;101504.40;108160;1255;75490;-75
2023/09/28 10:16:53;;;;;;;10.60;6.10;;;;;;;26.71;35.55;101499.71;108095;1256;62538;-73
2023/09/28 10:19:23;;;;;;;11.50;6.00;;;;;;;26.81;35.18;101499.81;108155;1254;59624;-72
2023/09/28 10:21:53;;;;;;;11.30;6.00;;;;;;;26.80;35.36;101496.40;108085;1255;59571;-73
2023/09/28 10:24:28;;;;;;;10.30;6.50;;;;;;;26.84;35.15;101497.45;108153;1254;73466;-73
2023/09/28 10:26:55;;;;;;;8.20;6.10;;;;;;;26.85;34.23;101492.27;108216;1254;71555;-72
2023/09/28 10:29:30;;;;;;;6.20;5.60;;;;;;;26.88;34.03;101493.06;108087;1258;74669;-73
2023/09/28 10:31:59;;;;;;;7.30;5.70;;;;;;;26.87;32.58;101492.02;108155;1254;59614;-72
2023/09/28 10:34:31;;;;;;;10.00;6.30;;;;;;;26.84;33.30;101489.55;108151;1254;61130;-73
2023/09/28 10:37:10;;;;;;;8.50;5.70;;;;;;;26.86;33.83;101488.20;108140;1254;71670;-73
2023/09/28 10:39:41;;;;;;;9.60;6.00;;;;;;;26.92;33.70;101486.21;108141;1254;72942;-72
2023/09/28 10:42:13;;;;;;;8.30;5.40;;;;;;;27.04;33.33;101484.58;108131;1254;72800;-73
2023/09/28 10:44:55;;;;;;;8.20;5.80;;;;;;;27.12;33.40;101484.14;107966;1254;59739;-72
2023/09/28 10:47:23;;;;;;;8.60;6.00;;;;;;;27.16;32.51;101476.35;108091;1254;59582;-70
2023/09/28 10:49:59;;;;;;;8.10;5.80;;;;;;;27.16;32.10;101476.36;108141;1254;73725;-70
2023/09/28 10:52:27;;;;;;;7.10;5.40;;;;;;;27.18;33.12;101476.90;108078;1255;75045;-69
2023/09/28 10:54:55;;;;;;;8.20;6.10;;;;;;;27.27;33.02;101471.49;107994;1254;72768;-70
2023/09/28 10:57:30;;;;;;;9.90;5.70;;;;;;;27.37;32.88;101472.87;107954;1254;59640;-70
2023/09/28 11:00:12;;;;;;;8.80;5.40;;;;;;;27.46;32.79;101468.42;108052;1255;59355;-73
2023/09/28 11:02:41;;;;;;;8.50;5.50;;;;;;;27.53;32.04;101463.28;107996;1257;74062;-68
2023/09/28 11:05:09;;;;;;;6.80;5.30;;;;;;;27.50;31.57;101462.58;108035;1254;64129;-70
2023/09/28 11:07:38;;;;;;;8.30;5.80;;;;;;;27.45;31.94;101461.25;108121;1255;71483;-69
2023/09/28 11:10:08;;;;;;;9.00;5.70;;;;;;;27.46;31.95;101458.23;108091;1254;59609;-70
2023/09/28 11:12:36;;;;;;;10.80;5.70;;;;;;;27.41;30.69;101455.59;108106;1254;60189;-68
2023/09/28 11:15:05;;;;;;;8.70;5.60;;;;;;;27.36;30.60;101453.35;108199;1254;62989;-73
2023/09/28 11:17:33;;;;;;;9.60;5.30;;;;;;;27.38;30.63;101452.37;108132;1254;74652;-70
2023/09/28 11:20:00;;;;;;;6.30;5.60;;;;;;;27.43;30.27;101447.23;108119;1254;62477;-72
2023/09/28 11:22:28;;;;;;;7.70;5.50;;;;;;;27.41;30.21;101444.22;107985;1257;60055;-70
2023/09/28 11:24:57;;;;;;;8.60;5.80;;;;;;;27.38;31.38;101443.81;107954;1254;60740;-76
2023/09/28 12:35:39;;;;;;;8.20;5.40;;;;;;;27.55;31.04;101398.59;105445;1285;605122;-73
2023/09/28 12:38:07;;;;;;;7.90;5.40;;;;;;;28.29;30.24;101390.61;106996;1273;348570;-72
2023/09/28 15:02:03;;;;;;;13.30;6.10;;;;;;;28.75;32.49;101325.98;105803;1281;605204;-72
2023/09/28 15:04:30;;;;;;;7.30;5.20;;;;;;;29.94;30.95;101327.33;107314;1264;174748;-70
2023/09/28 15:06:57;;;;;;;8.80;5.80;;;;;;;29.92;31.03;101324.94;107499;1265;59379;-71
2023/09/28 15:09:24;;;;;;;7.10;5.50;;;;;;;29.86;31.02;101326.43;107401;1266;63513;-72
2023/09/28 15:11:51;;;;;;;7.40;5.30;;;;;;;29.76;30.83;101332.17;107409;1266;64176;-71
2023/09/28 15:14:18;;;;;;;8.10;5.30;;;;;;;29.60;32.13;101330.88;107449;1266;63892;-72
2023/09/28 15:16:44;;;;;;;7.80;5.30;;;;;;;29.40;32.91;101330.77;107473;1266;58797;-71
2023/09/28 15:19:11;;;;;;;8.90;5.70;;;;;;;29.17;33.05;101333.20;107461;1264;59520;-71
2023/09/28 15:21:38;;;;;;;8.90;5.50;;;;;;;28.88;33.39;101334.65;107456;1266;63369;-71
2023/09/28 15:24:09;;;;;;;9.60;5.70;;;;;;;28.46;33.16;101337.07;107423;1266;63953;-72
2023/09/28 15:26:36;;;;;;;8.40;5.70;;;;;;;28.00;33.66;101336.67;107422;1264;63959;-72
2023/09/28 15:29:07;;;;;;;8.90;5.70;;;;;;;27.56;34.87;101338.79;107430;1266;60659;-72
2023/09/28 15:31:38;;;;;;;10.90;6.20;;;;;;;27.14;35.48;101344.12;107384;1266;59708;-72
2023/09/28 15:34:05;;;;;;;9.60;5.80;;;;;;;26.74;36.26;101343.68;107460;1266;72123;-72
2023/09/28 15:36:32;;;;;;;11.70;6.50;;;;;;;26.39;37.33;101342.85;107427;1266;72814;-71
2023/09/28 15:38:59;;;;;;;8.90;6.10;;;;;;;26.05;37.77;101345.66;107476;1266;71157;-72
2023/09/28 15:41:34;;;;;;;10.80;6.00;;;;;;;25.74;37.68;101345.48;107448;1264;60077;-72
2023/09/28 15:44:04;;;;;;;7.30;5.80;;;;;;;25.41;39.02;101351.17;107474;1266;60062;-72
2023/09/28 15:46:32;;;;;;;8.40;6.60;;;;;;;25.11;39.78;101347.61;107398;1266;72376;-72
2023/09/28 15:49:03;;;;;;;10.30;6.00;;;;;;;24.86;40.36;101354.28;107439;1266;73058;-72
2023/09/28 15:51:30;;;;;;;9.60;6.50;;;;;;;24.54;40.46;101350.90;107387;1266;72756;-72
2023/09/28 15:53:57;;;;;;;10.20;6.70;;;;;;;24.23;41.01;101356.85;107322;1265;60487;-72
2023/09/28 15:56:25;;;;;;;10.80;6.80;;;;;;;23.94;42.17;101359.27;107366;1265;60331;-69
2023/09/28 15:58:52;;;;;;;13.70;7.60;;;;;;;23.67;42.77;101362.15;107794;1259;73103;-71
2023/09/28 16:01:20;;;;;;;9.40;6.90;;;;;;;23.42;43.24;101362.88;107746;1259;72760;-71
2023/09/28 16:03:47;;;;;;;11.60;7.30;;;;;;;23.20;44.06;101361.70;107681;1259;71156;-72
2023/09/28 16:06:15;;;;;;;13.30;8.60;;;;;;;22.99;44.61;101362.45;107732;1259;61379;-70
2023/09/28 16:08:42;;;;;;;12.20;8.40;;;;;;;22.75;45.94;101361.30;107787;1259;61140;-71
2023/09/28 16:11:09;;;;;;;13.60;8.30;;;;;;;22.54;47.90;101366.02;107715;1259;74230;-71
2023/09/28 16:13:36;;;;;;;12.10;9.20;;;;;;;22.34;49.19;101363.85;107716;1259;72811;-71
2023/09/28 16:16:03;;;;;;;14.40;9.20;;;;;;;22.16;50.48;101367.39;107704;1263;73830;-71
2023/09/28 16:18:32;;;;;;;13.50;9.00;;;;;;;21.96;51.39;101367.66;107755;1259;60134;-72
2023/09/28 16:20:59;;;;;;;11.50;9.20;;;;;;;21.77;52.19;101366.80;107720;1259;60373;-72
2023/09/28 16:23:26;;;;;;;14.60;10.20;;;;;;;21.57;53.09;101371.18;107734;1259;72989;-72
2023/09/28 16:25:53;;;;;;;14.20;10.10;;;;;;;21.39;53.60;101368.50;107680;1259;72985;-72
2023/09/28 16:28:21;;;;;;;14.30;10.20;;;;;;;21.21;54.15;101369.00;107711;1259;72719;-71
2023/09/28 16:30:47;;;;;;;14.50;11.00;;;;;;;21.08;54.59;101372.16;107643;1259;60445;-72
2023/09/28 16:33:14;;;;;;;14.00;10.40;;;;;;;20.93;55.16;101369.36;107704;1259;60220;-71